createdAt,value
2017-06-12T00:00:52.781Z,85.27
2017-06-12T00:10:52.759Z,81.96
2017-06-12T00:20:52.706Z,79.07
2017-06-12T00:30:52.749Z,73.79
2017-06-12T00:40:52.796Z,71.96
2017-06-12T00:50:52.794Z,73.6
2017-06-12T01:00:52.745Z,77.73
2017-06-12T01:10:52.689Z,82.49
2017-06-12T01:20:52.773Z,79.38
2017-06-12T01:30:52.739Z,76.88
2017-06-12T01:40:52.695Z,77.46
2017-06-12T01:50:52.768Z,79.72
2017-06-12T02:00:52.703Z,80.26
2017-06-12T02:10:52.829Z,80.64
2017-06-12T02:20:52.762Z,81.7
2017-06-12T02:30:52.685Z,81.6
2017-06-12T02:40:52.767Z,83
2017-06-12T02:50:52.720Z,83.86
2017-06-12T03:00:52.732Z,84.91
2017-06-12T03:10:52.749Z,86.5
2017-06-12T03:20:52.704Z,87.84
2017-06-12T03:30:52.797Z,88.9
2017-06-12T03:40:52.742Z,90.67
2017-06-12T03:50:52.692Z,92.11
2017-06-12T04:00:52.763Z,94.21
2017-06-12T04:10:53.749Z,93.93
2017-06-12T04:20:52.676Z,94.21
2017-06-12T04:30:52.730Z,94.5
2017-06-12T04:40:52.698Z,95.31
2017-06-12T04:50:52.762Z,93.49
2017-06-12T05:00:52.731Z,92.63
2017-06-12T05:10:52.685Z,93.63
2017-06-12T05:20:52.673Z,93.16
2017-06-12T05:30:52.776Z,90.71
2017-06-12T05:40:52.787Z,92.33
2017-06-12T05:50:52.746Z,85.67
2017-06-12T06:00:52.704Z,72.25
2017-06-12T06:10:52.758Z,70
2017-06-12T06:20:52.704Z,65.2
2017-06-12T06:30:52.805Z,62.73
2017-06-12T06:40:52.951Z,61.3
2017-06-12T06:50:52.705Z,59.15
2017-06-12T07:00:52.968Z,56.95
2017-06-12T07:10:52.697Z,60.98
2017-06-12T07:20:52.800Z,67.04
2017-06-12T07:30:52.747Z,71.92
2017-06-12T07:40:52.724Z,76.53
2017-06-12T07:50:52.779Z,75.34
2017-06-12T08:00:52.692Z,64.37
2017-06-12T08:10:52.702Z,68.55
2017-06-12T08:20:52.721Z,71.79
2017-06-12T08:30:52.715Z,78.36
2017-06-12T08:40:52.709Z,74.69
2017-06-12T08:50:52.717Z,62.12
2017-06-12T09:00:52.713Z,64.82
2017-06-12T09:10:52.729Z,69.51
2017-06-12T09:20:52.746Z,70.76
2017-06-12T09:30:52.771Z,69.44
2017-06-12T09:40:52.716Z,67.99
2017-06-12T09:50:52.753Z,69.38
2017-06-12T10:00:52.729Z,69.51
2017-06-12T10:10:52.726Z,67.68
2017-06-12T10:20:52.732Z,68.84
2017-06-12T10:30:52.724Z,66.81
2017-06-12T10:40:52.717Z,65.91
2017-06-12T10:50:52.718Z,64.79
2017-06-12T11:00:52.747Z,66.94
2017-06-12T11:10:52.755Z,68.6
2017-06-12T11:20:52.730Z,66.65
2017-06-12T11:30:52.733Z,63.25
2017-06-12T11:40:52.743Z,67.19
2017-06-12T11:50:52.759Z,70.76
2017-06-12T12:00:52.728Z,67.71
2017-06-12T12:10:52.742Z,71.37
2017-06-12T12:20:52.834Z,71.46
2017-06-12T12:30:52.744Z,72.29
2017-06-12T12:40:55.866Z,68.41
2017-06-12T12:50:54.844Z,65.85
2017-06-12T13:00:52.785Z,65.53
2017-06-12T13:10:53.110Z,62.29
2017-06-12T13:20:52.784Z,61.87
2017-06-12T13:30:52.841Z,63.12
2017-06-12T13:40:52.829Z,61.19
2017-06-12T13:50:52.870Z,59.87
2017-06-12T14:00:52.837Z,64.89
2017-06-12T14:10:52.833Z,65.66
2017-06-12T14:20:52.883Z,65.43
2017-06-12T14:30:52.826Z,64.12
2017-06-12T14:40:52.767Z,64.25
2017-06-12T17:21:13.755Z,66.74
2017-06-12T17:30:52.808Z,66.27
2017-06-12T17:40:52.786Z,69.63
2017-06-12T17:50:52.785Z,70.65
2017-06-12T18:00:52.843Z,69.37
2017-06-12T18:10:52.803Z,69.75
2017-06-12T18:20:52.786Z,71.19
2017-06-12T18:30:52.844Z,71.77
2017-06-12T18:40:52.794Z,71.45
2017-06-12T18:50:53.149Z,71.06
2017-06-12T19:00:52.866Z,71.83
2017-06-12T19:10:52.802Z,72.6
2017-06-12T19:20:52.891Z,73.46
2017-06-12T19:30:52.810Z,74.29
2017-06-12T19:40:52.860Z,75.15
2017-06-12T19:50:52.841Z,75.73
2017-06-12T20:00:52.845Z,76.65
2017-06-12T20:10:52.821Z,77.42
2017-06-12T20:20:52.817Z,77.71
2017-06-12T20:30:52.883Z,77.9
2017-06-12T20:40:52.980Z,78.86
2017-06-12T20:50:52.861Z,80.74
2017-06-12T21:00:52.916Z,81.89
2017-06-12T21:10:52.892Z,82.46
2017-06-12T21:20:52.831Z,83.23
2017-06-12T21:30:52.874Z,83.48
2017-06-12T21:40:52.833Z,83.81
2017-06-12T21:50:53.268Z,84.28
2017-06-12T22:00:52.864Z,85.21
2017-06-12T22:10:53.757Z,85.97
2017-06-12T22:20:52.906Z,87.84
2017-06-12T22:30:52.890Z,88.56
2017-06-12T22:40:52.949Z,89.71
2017-06-12T22:50:52.893Z,91.14
2017-06-12T23:00:52.837Z,92.25
2017-06-12T23:10:52.911Z,93.88
2017-06-12T23:20:52.870Z,95.31
2017-06-12T23:30:52.809Z,95.6
2017-06-12T23:40:52.882Z,95.79
2017-06-12T23:50:52.842Z,96.75
